createdAt,value
2019-04-21T00:01:46.544Z,98966.47
2019-04-21T00:04:24.851Z,98966.47
2019-04-21T00:07:03.063Z,98966.47
2019-04-21T00:09:42.323Z,98964.29
2019-04-21T00:12:08.958Z,98964.29
2019-04-21T00:14:31.601Z,98971.26
2019-04-21T00:16:56.024Z,98966.94
2019-04-21T00:19:40.806Z,98967.81
2019-04-21T00:22:23.233Z,98960.85
2019-04-21T00:24:58.368Z,98955.64
2019-04-21T00:27:32.433Z,98955.22
2019-04-21T00:30:08.731Z,98957.83
2019-04-21T00:32:28.172Z,98953.92
2019-04-21T00:34:56.601Z,98954.38
2019-04-21T00:37:30.273Z,98948.30
2019-04-21T00:40:09.429Z,98946.11
2019-04-21T00:42:38.897Z,98947.41
2019-04-21T00:45:09.821Z,98948.25
2019-04-21T00:47:38.796Z,98947.83
2019-04-21T00:50:19.098Z,98946.53
2019-04-21T00:53:22.781Z,98946.06
2019-04-21T00:55:56.170Z,98940.40
2019-04-21T00:58:30.418Z,98944.30
2019-04-21T01:00:57.048Z,98949.09
2019-04-21T01:03:47.444Z,98941.69
2019-04-21T01:05:57.606Z,98942.16
2019-04-21T01:08:31.136Z,98940.02
2019-04-21T01:10:57.024Z,98936.48
2019-04-21T01:13:39.477Z,98943.84
2019-04-21T01:16:10.141Z,98939.59
2019-04-21T01:18:33.120Z,98942.63
2019-04-21T01:20:45.468Z,98935.20
2019-04-21T01:23:16.641Z,98935.88
2019-04-21T01:26:05.225Z,98934.67
2019-04-21T01:28:35.916Z,98937.38
2019-04-21T01:31:11.119Z,98936.91
2019-04-21T01:33:48.639Z,98938.21
2019-04-21T01:36:11.343Z,98934.27
2019-04-21T01:38:48.165Z,98933.37
2019-04-21T01:41:21.284Z,98931.61
2019-04-21T01:43:45.868Z,98935.45
2019-04-21T01:46:15.270Z,98931.55
2019-04-21T01:48:42.904Z,98929.38
2019-04-21T01:51:18.364Z,98929.36
2019-04-21T01:54:03.698Z,98927.65
2019-04-21T01:56:46.463Z,98919.80
2019-04-21T01:59:08.318Z,98928.42
2019-04-21T02:01:57.538Z,98929.73
2019-04-21T02:04:32.679Z,98923.23
2019-04-21T02:06:59.968Z,98916.72
2019-04-21T02:09:19.193Z,98914.94
2019-04-21T02:12:05.832Z,98906.66
2019-04-21T02:14:38.111Z,98903.18
2019-04-21T02:16:59.639Z,98910.98
2019-04-21T02:19:28.459Z,98905.34
2019-04-21T02:21:54.296Z,98904.45
2019-04-21T02:24:47.956Z,98904.87
2019-04-21T02:27:07.613Z,98906.16
2019-04-21T02:29:40.920Z,98901.03
2019-04-21T02:35:06.380Z,98908.38
2019-04-21T02:39:57.363Z,98907.08
2019-04-21T02:42:32.934Z,98908.84
2019-04-21T02:47:36.723Z,98912.80
2019-04-21T02:55:02.684Z,98911.09
2019-04-21T02:57:41.388Z,98911.85
2019-04-21T03:06:25.149Z,98910.22
2019-04-21T03:08:50.120Z,98902.89
2019-04-21T03:11:17.415Z,98893.80
2019-04-21T03:21:16.189Z,98893.65
2019-04-21T03:26:28.313Z,98901.36
2019-04-21T03:34:34.854Z,98902.66
2019-04-21T03:41:30.537Z,98902.20
2019-04-21T03:43:58.932Z,98903.55
2019-04-21T03:46:37.349Z,98901.39
2019-04-21T03:54:09.161Z,98893.52
2019-04-21T04:01:58.406Z,98886.27
2019-04-21T04:04:49.637Z,98883.69
2019-04-21T04:10:22.394Z,98877.23
2019-04-21T04:12:53.915Z,98881.19
2019-04-21T04:17:48.225Z,98880.37
2019-04-21T04:22:55.303Z,98880.92
2019-04-21T04:25:43.050Z,98882.73
2019-04-21T04:28:10.169Z,98880.16
2019-04-21T04:30:33.963Z,98882.76
2019-04-21T04:33:01.254Z,98882.81
2019-04-21T04:35:49.055Z,98883.25
2019-04-21T04:38:03.623Z,98878.92
2019-04-21T04:40:51.770Z,98878.06
2019-04-21T04:43:19.876Z,98875.45
2019-04-21T04:46:11.392Z,98876.31
2019-04-21T04:48:24.144Z,98877.62
2019-04-21T04:50:55.407Z,98879.76
2019-04-21T04:55:54.717Z,98877.48
2019-04-21T04:58:38.933Z,98877.00
2019-04-21T05:01:08.599Z,98875.66
2019-04-21T05:03:47.302Z,98879.95
2019-04-21T05:06:41.922Z,98872.05
2019-04-21T05:11:46.072Z,98872.05
2019-04-21T05:16:54.898Z,98877.88
2019-04-21T05:21:39.008Z,98876.89
2019-04-21T05:24:01.325Z,98875.56
2019-04-21T05:26:36.086Z,98878.52
2019-04-21T05:29:01.969Z,98873.20
2019-04-21T05:31:56.942Z,98871.36
2019-04-21T05:34:30.595Z,98872.96
2019-04-21T05:37:20.203Z,98865.37
2019-04-21T05:39:53.685Z,98864.38
2019-04-21T05:42:23.626Z,98870.30
2019-04-21T05:47:46.366Z,98868.80
2019-04-21T05:50:16.750Z,98869.53
2019-04-21T05:52:51.883Z,98867.64
2019-04-21T05:58:03.942Z,98869.95
2019-04-21T06:00:52.638Z,98871.52
2019-04-21T06:03:09.885Z,98868.19
2019-04-21T06:05:58.427Z,98871.48
2019-04-21T06:08:13.692Z,98874.79
2019-04-21T06:10:47.392Z,98877.24
2019-04-21T06:13:22.799Z,98870.09
2019-04-21T06:15:54.680Z,98873.83
2019-04-21T06:18:20.332Z,98872.83
2019-04-21T06:20:51.809Z,98874.80
2019-04-21T06:23:19.834Z,98872.38
2019-04-21T06:26:19.313Z,98876.56
2019-04-21T06:28:30.567Z,98879.89
2019-04-21T06:31:05.856Z,98878.05
2019-04-21T06:33:32.294Z,98877.40
2019-04-21T06:39:11.699Z,98872.66
2019-04-21T06:41:38.029Z,98867.30
2019-04-21T06:44:20.380Z,98862.30
2019-04-21T06:46:40.850Z,98870.03
2019-04-21T06:49:15.686Z,98871.91
2019-04-21T06:51:43.607Z,98874.75
2019-04-21T06:54:14.536Z,98876.78
2019-04-21T06:56:47.847Z,98871.76
2019-04-21T06:59:16.749Z,98870.72
2019-04-21T07:01:54.744Z,98868.37
2019-04-21T07:04:40.340Z,98861.17
2019-04-21T07:06:57.460Z,98862.88
2019-04-21T07:09:25.428Z,98862.63
2019-04-21T07:11:52.841Z,98858.22
2019-04-21T07:19:34.664Z,98853.46
2019-04-21T07:22:09.024Z,98857.67
2019-04-21T07:27:15.241Z,98856.28
2019-04-21T07:29:39.582Z,98853.48
2019-04-21T07:32:20.929Z,98844.89
2019-04-21T07:34:38.329Z,98848.98
2019-04-21T07:37:08.670Z,98853.92
2019-04-21T07:39:40.772Z,98850.94
2019-04-21T07:42:09.064Z,98847.31
2019-04-21T07:44:37.812Z,98842.78
2019-04-21T07:47:15.781Z,98843.00
2019-04-21T07:49:53.102Z,98837.89
2019-04-21T07:52:35.007Z,98842.84
2019-04-21T07:55:12.666Z,98838.59
2019-04-21T07:57:31.623Z,98836.75
2019-04-21T08:00:16.066Z,98838.27
2019-04-21T08:02:34.336Z,98834.53
2019-04-21T08:05:13.051Z,98825.45
2019-04-21T08:07:48.195Z,98825.95
2019-04-21T08:10:13.519Z,98828.30
2019-04-21T08:12:37.438Z,98823.83
2019-04-21T08:17:41.424Z,98818.22
2019-04-21T08:20:15.629Z,98809.53
2019-04-21T08:30:25.785Z,98801.78
2019-04-21T08:33:04.365Z,98800.18
2019-04-21T08:35:48.703Z,98810.45
2019-04-21T08:37:54.997Z,98798.06
2019-04-21T08:40:31.673Z,98797.53
2019-04-21T08:42:57.124Z,98798.67
2019-04-21T08:45:40.458Z,98789.43
2019-04-21T08:48:04.737Z,98788.98
2019-04-21T08:50:31.011Z,98783.59
2019-04-21T08:53:08.031Z,98794.19
2019-04-21T08:56:12.298Z,98786.00
2019-04-21T08:59:09.520Z,98789.08
2019-04-21T09:02:04.257Z,98788.72
2019-04-21T09:04:46.103Z,98785.89
2019-04-21T09:07:13.159Z,98785.81
2019-04-21T09:09:36.071Z,98781.63
2019-04-21T09:12:04.311Z,98775.26
2019-04-21T09:14:39.585Z,98773.81
2019-04-21T09:17:06.590Z,98772.33
2019-04-21T09:19:51.857Z,98766.97
2019-04-21T09:22:13.224Z,98766.06
2019-04-21T09:24:50.164Z,98763.34
2019-04-21T09:27:15.417Z,98772.84
2019-04-21T09:29:38.296Z,98769.77
2019-04-21T09:32:01.928Z,98772.30
2019-04-21T09:34:38.029Z,98759.98
2019-04-21T09:37:15.353Z,98765.75
2019-04-21T09:39:40.940Z,98756.00
2019-04-21T09:42:06.660Z,98751.56
2019-04-21T09:44:40.112Z,98750.34
2019-04-21T09:47:09.196Z,98750.91
2019-04-21T09:49:40.083Z,98740.06
2019-04-21T09:52:18.572Z,98745.15
2019-04-21T09:54:52.054Z,98736.54
2019-04-21T09:57:25.324Z,98729.68
2019-04-21T09:59:55.839Z,98723.98
2019-04-21T10:02:30.460Z,98708.75
2019-04-21T10:04:48.250Z,98706.00
2019-04-21T10:07:26.364Z,98694.24
2019-04-21T10:09:50.029Z,98684.80
2019-04-21T10:12:19.978Z,98685.13
2019-04-21T10:14:49.548Z,98686.36
2019-04-21T10:17:27.566Z,98688.53
2019-04-21T10:19:58.720Z,98689.42
2019-04-21T10:22:28.878Z,98680.97
2019-04-21T10:24:58.729Z,98679.45
2019-04-21T10:27:29.485Z,98671.75
2019-04-21T10:29:59.320Z,98670.98
2019-04-21T10:32:30.100Z,98662.75
2019-04-21T10:35:01.084Z,98660.53
2019-04-21T10:37:42.745Z,98649.95
2019-04-21T10:40:03.455Z,98648.50
2019-04-21T10:42:33.518Z,98645.61
2019-04-21T10:45:03.401Z,98647.31
2019-04-21T10:47:32.943Z,98649.46
2019-04-21T10:50:02.864Z,98640.36
2019-04-21T10:52:50.989Z,98642.40
2019-04-21T10:55:41.418Z,98639.04
2019-04-21T10:58:24.584Z,98636.78
2019-04-21T11:01:01.992Z,98625.53
2019-04-21T11:03:40.391Z,98628.28
2019-04-21T11:06:10.857Z,98626.80
2019-04-21T11:08:45.056Z,98629.55
2019-04-21T11:11:12.261Z,98624.53
2019-04-21T11:13:41.633Z,98625.79
2019-04-21T11:16:11.500Z,98622.39
2019-04-21T11:18:42.103Z,98619.11
2019-04-21T11:21:13.111Z,98618.23
2019-04-21T11:23:43.862Z,98612.78
2019-04-21T11:26:14.059Z,98611.92
2019-04-21T11:28:45.080Z,98613.77
2019-04-21T11:31:15.366Z,98605.57
2019-04-21T11:33:45.416Z,98602.35
2019-04-21T11:36:15.665Z,98606.18
2019-04-21T11:39:27.215Z,98599.75
2019-04-21T11:41:45.752Z,98593.06
2019-04-21T11:44:16.312Z,98595.21
2019-04-21T11:46:46.658Z,98586.89
2019-04-21T11:49:16.366Z,98586.40
2019-04-21T11:51:46.947Z,98584.87
2019-04-21T11:54:17.113Z,98574.80
2019-04-21T11:56:46.814Z,98578.20
2019-04-21T11:59:17.504Z,98577.88
2019-04-21T12:01:47.610Z,98582.08
2019-04-21T12:04:17.982Z,98581.86
2019-04-21T12:06:49.525Z,98581.78
2019-04-21T12:09:19.322Z,98571.55
2019-04-21T12:11:49.412Z,98570.91
2019-04-21T12:14:19.886Z,98573.56
2019-04-21T12:16:50.869Z,98566.85
2019-04-21T12:19:20.889Z,98564.45
2019-04-21T12:22:02.872Z,98564.55
2019-04-21T12:24:22.094Z,98560.39
2019-04-21T12:26:51.931Z,98559.38
2019-04-21T12:29:24.753Z,98556.03
2019-04-21T12:32:12.418Z,98545.30
2019-04-21T12:34:42.047Z,98540.72
2019-04-21T12:37:13.039Z,98539.92
2019-04-21T12:39:43.093Z,98541.89
2019-04-21T12:42:12.508Z,98543.23
2019-04-21T12:44:43.348Z,98537.84
2019-04-21T12:47:14.063Z,98534.52
2019-04-21T12:49:43.997Z,98530.55
2019-04-21T12:52:13.659Z,98528.47
2019-04-21T12:54:43.917Z,98526.56
2019-04-21T12:57:13.930Z,98522.75
2019-04-21T12:59:44.659Z,98515.53
2019-04-21T13:02:15.939Z,98517.48
2019-04-21T13:04:46.186Z,98512.81
2019-04-21T13:07:15.639Z,98503.69
2019-04-21T13:09:46.335Z,98495.22
2019-04-21T13:12:17.203Z,98489.02
2019-04-21T13:14:47.468Z,98489.70
2019-04-21T13:17:17.350Z,98483.77
2019-04-21T13:19:47.330Z,98479.98
2019-04-21T13:22:18.365Z,98474.63
2019-04-21T13:24:49.570Z,98473.67
2019-04-21T13:27:20.653Z,98468.12
2019-04-21T13:29:50.536Z,98462.87
2019-04-21T13:32:20.503Z,98455.69
2019-04-21T13:34:50.953Z,98454.77
2019-04-21T13:37:21.478Z,98444.61
2019-04-21T13:40:32.513Z,98454.73
2019-04-21T13:42:46.683Z,98460.50
2019-04-21T13:45:14.087Z,98451.23
2019-04-21T13:47:43.818Z,98448.47
2019-04-21T13:50:15.305Z,98446.17
2019-04-21T13:52:45.245Z,98455.17
2019-04-21T13:55:15.853Z,98446.05
2019-04-21T13:57:46.439Z,98448.33
2019-04-21T14:00:17.243Z,98445.13
2019-04-21T14:02:47.174Z,98445.03
2019-04-21T14:05:18.144Z,98442.16
2019-04-21T14:07:48.184Z,98437.27
2019-04-21T14:10:18.065Z,98433.00
2019-04-21T14:12:48.926Z,98430.94
2019-04-21T14:15:20.355Z,98434.06
2019-04-21T14:17:50.897Z,98431.10
2019-04-21T14:20:21.592Z,98425.13
2019-04-21T14:22:51.929Z,98425.45
2019-04-21T14:25:21.715Z,98417.98
2019-04-21T14:27:52.576Z,98416.87
2019-04-21T14:30:23.547Z,98417.06
2019-04-21T14:32:54.077Z,98413.54
2019-04-21T14:35:25.028Z,98407.67
2019-04-21T14:37:54.726Z,98407.60
2019-04-21T14:40:27.642Z,98415.02
2019-04-21T14:42:56.200Z,98403.45
2019-04-21T14:45:57.156Z,98404.31
2019-04-21T14:48:45.282Z,98407.63
2019-04-21T14:51:34.911Z,98409.32
2019-04-21T14:54:18.482Z,98411.12
2019-04-21T14:56:49.257Z,98401.20
2019-04-21T15:01:46.359Z,98395.19
2019-04-21T15:04:17.675Z,98400.59
2019-04-21T15:06:47.688Z,98399.77
2019-04-21T15:09:17.238Z,98396.58
2019-04-21T15:11:47.707Z,98386.41
2019-04-21T15:14:17.893Z,98390.05
2019-04-21T15:16:47.542Z,98383.02
2019-04-21T15:19:17.216Z,98386.28
2019-04-21T15:21:48.116Z,98379.63
2019-04-21T15:24:18.367Z,98374.03
2019-04-21T15:26:49.235Z,98382.34
2019-04-21T15:29:20.418Z,98376.45
2019-04-21T15:31:50.619Z,98372.25
2019-04-21T15:34:22.527Z,98368.08
2019-04-21T15:36:52.398Z,98372.08
2019-04-21T15:39:23.528Z,98370.64
2019-04-21T15:41:54.555Z,98373.09
2019-04-21T15:44:24.826Z,98369.52
2019-04-21T15:46:55.650Z,98376.72
2019-04-21T15:49:40.567Z,98370.63
2019-04-21T15:52:01.937Z,98364.91
2019-04-21T15:54:32.409Z,98367.94
2019-04-21T15:57:11.180Z,98368.09
2019-04-21T15:59:55.517Z,98375.65
2019-04-21T16:02:38.765Z,98371.05
2019-04-21T16:05:10.877Z,98375.42
2019-04-21T16:07:40.530Z,98372.27
2019-04-21T16:10:14.472Z,98367.78
2019-04-21T16:12:43.682Z,98362.11
2019-04-21T16:15:14.571Z,98357.58
2019-04-21T16:17:45.544Z,98358.11
2019-04-21T16:20:15.832Z,98349.97
2019-04-21T16:22:46.458Z,98353.27
2019-04-21T16:25:17.034Z,98350.85
2019-04-21T16:27:47.641Z,98350.62
2019-04-21T16:30:17.692Z,98352.64
2019-04-21T16:32:48.266Z,98352.20
2019-04-21T16:35:20.519Z,98346.84
2019-04-21T16:37:50.189Z,98348.02
2019-04-21T16:40:21.264Z,98351.55
2019-04-21T16:42:52.147Z,98349.39
2019-04-21T16:45:25.091Z,98348.53
2019-04-21T16:47:56.001Z,98349.33
2019-04-21T16:50:27.950Z,98353.44
2019-04-21T16:53:10.175Z,98350.45
2019-04-21T16:56:04.942Z,98348.58
2019-04-21T16:58:44.979Z,98343.00
2019-04-21T17:01:25.705Z,98345.50
2019-04-21T17:03:55.249Z,98349.97
2019-04-21T17:06:24.983Z,98349.50
2019-04-21T17:08:54.757Z,98348.55
2019-04-21T17:11:29.281Z,98351.94
2019-04-21T17:13:56.971Z,98352.25
2019-04-21T17:16:51.466Z,98356.23
2019-04-21T17:19:09.520Z,98351.48
2019-04-21T17:21:30.725Z,98357.53
2019-04-21T17:24:02.111Z,98358.99
2019-04-21T17:26:34.522Z,98358.41
2019-04-21T17:29:02.921Z,98361.63
2019-04-21T17:31:32.511Z,98359.33
2019-04-21T17:34:10.273Z,98362.77
2019-04-21T17:36:34.914Z,98359.41
2019-04-21T17:39:06.888Z,98362.30
2019-04-21T17:41:42.467Z,98363.16
2019-04-21T17:44:09.028Z,98363.94
2019-04-21T17:46:46.602Z,98365.77
2019-04-21T17:49:10.900Z,98363.39
2019-04-21T17:52:03.964Z,98361.30
2019-04-21T17:54:42.849Z,98364.80
2019-04-21T17:57:29.226Z,98360.70
2019-04-21T18:00:11.437Z,98369.00
2019-04-21T18:02:38.599Z,98372.31
2019-04-21T18:05:13.330Z,98372.44
2019-04-21T18:07:34.973Z,98371.05
2019-04-21T18:10:19.322Z,98374.73
2019-04-21T18:12:33.796Z,98377.70
2019-04-21T18:15:00.229Z,98378.16
2019-04-21T18:17:22.666Z,98377.77
2019-04-21T18:19:55.133Z,98379.19
2019-04-21T18:22:45.484Z,98379.77
2019-04-21T18:25:28.159Z,98384.59
2019-04-21T18:27:48.733Z,98387.59
2019-04-21T18:30:44.688Z,98388.69
2019-04-21T18:33:22.284Z,98389.59
2019-04-21T18:36:20.159Z,98390.16
2019-04-21T18:39:10.043Z,98390.94
2019-04-21T18:41:30.298Z,98392.48
2019-04-21T18:44:34.521Z,98388.01
2019-04-21T18:47:03.681Z,98397.89
2019-04-21T18:49:21.098Z,98392.45
2019-04-21T18:52:08.077Z,98398.92
2019-04-21T18:54:53.667Z,98396.47
2019-04-21T18:57:10.736Z,98397.79
2019-04-21T18:59:39.612Z,98399.69
2019-04-21T19:02:09.877Z,98398.70
2019-04-21T19:04:39.060Z,98397.56
2019-04-21T19:07:21.075Z,98397.69
2019-04-21T19:12:42.375Z,98402.09
2019-04-21T19:15:00.615Z,98401.86
2019-04-21T19:17:58.086Z,98408.17
2019-04-21T19:20:12.953Z,98411.71
2019-04-21T19:22:40.106Z,98409.59
2019-04-21T19:25:05.091Z,98409.33
2019-04-21T19:27:36.548Z,98408.64
2019-04-21T19:30:13.517Z,98405.70
2019-04-21T19:32:43.373Z,98403.26
2019-04-21T19:34:59.452Z,98404.64
2019-04-21T19:37:28.234Z,98405.47
2019-04-21T19:40:09.533Z,98404.66
2019-04-21T19:42:37.975Z,98396.75
2019-04-21T19:45:17.580Z,98404.79
2019-04-21T19:47:48.874Z,98399.39
2019-04-21T19:50:26.165Z,98404.28
2019-04-21T19:52:44.035Z,98402.16
2019-04-21T19:57:47.059Z,98394.41
2019-04-21T20:00:17.479Z,98399.87
2019-04-21T20:02:48.629Z,98400.77
2019-04-21T20:05:28.223Z,98400.38
2019-04-21T20:08:06.551Z,98406.35
2019-04-21T20:10:39.520Z,98402.91
2019-04-21T20:13:14.641Z,98408.75
2019-04-21T20:15:46.686Z,98408.92
2019-04-21T20:18:07.078Z,98420.84
2019-04-21T20:20:26.973Z,98431.63
2019-04-21T20:22:57.504Z,98428.75
2019-04-21T20:25:29.028Z,98430.67
2019-04-21T20:28:07.191Z,98429.25
2019-04-21T20:30:49.074Z,98427.91
2019-04-21T20:33:45.742Z,98434.20
2019-04-21T20:35:55.892Z,98440.98
2019-04-21T20:38:19.230Z,98440.55
2019-04-21T20:40:45.888Z,98443.64
2019-04-21T20:43:25.168Z,98449.22
2019-04-21T20:46:00.348Z,98440.93
2019-04-21T20:48:21.021Z,98435.80
2019-04-21T20:51:00.614Z,98431.72
2019-04-21T20:53:33.055Z,98427.52
2019-04-21T20:55:57.661Z,98429.19
2019-04-21T20:58:34.798Z,98424.01
2019-04-21T21:01:20.270Z,98427.16
2019-04-21T21:03:34.895Z,98426.00
2019-04-21T21:06:02.253Z,98422.61
2019-04-21T21:08:39.950Z,98423.97
2019-04-21T21:11:07.033Z,98418.03
2019-04-21T21:13:44.402Z,98421.17
2019-04-21T21:21:15.613Z,98416.66
2019-04-21T21:23:47.780Z,98416.80
2019-04-21T21:26:21.879Z,98417.67
2019-04-21T21:28:42.998Z,98419.29
2019-04-21T21:31:25.148Z,98418.20
2019-04-21T21:34:08.237Z,98429.61
2019-04-21T21:36:25.210Z,98430.09
2019-04-21T21:38:55.989Z,98427.38
2019-04-21T21:41:18.959Z,98430.22
2019-04-21T21:43:44.786Z,98434.69
2019-04-21T21:46:32.492Z,98442.12
2019-04-21T21:48:59.061Z,98449.64
2019-04-21T21:51:29.035Z,98451.39
2019-04-21T21:53:48.558Z,98453.34
2019-04-21T21:56:18.480Z,98455.06
2019-04-21T21:58:49.679Z,98459.79
2019-04-21T22:01:21.765Z,98463.16
2019-04-21T22:04:01.670Z,98461.96
2019-04-21T22:06:29.216Z,98456.86
2019-04-21T22:08:54.647Z,98457.34
2019-04-21T22:11:24.206Z,98453.45
2019-04-21T22:14:01.895Z,98457.42
2019-04-21T22:16:41.139Z,98447.23
2019-04-21T22:19:16.882Z,98449.55
2019-04-21T22:21:47.594Z,98455.20
2019-04-21T22:24:08.453Z,98452.46
2019-04-21T22:26:31.284Z,98452.97
2019-04-21T22:29:01.520Z,98447.55
2019-04-21T22:31:34.183Z,98442.83
2019-04-21T22:34:07.029Z,98432.59
2019-04-21T22:36:47.208Z,98434.89
2019-04-21T22:39:28.354Z,98433.32
2019-04-21T22:41:46.687Z,98431.45
2019-04-21T22:44:18.888Z,98435.44
2019-04-21T22:46:59.995Z,98425.17
2019-04-21T22:49:21.930Z,98434.19
2019-04-21T22:51:52.465Z,98431.44
2019-04-21T22:54:28.681Z,98427.61
2019-04-21T22:57:02.684Z,98423.19
2019-04-21T22:59:27.846Z,98415.36
2019-04-21T23:01:57.733Z,98410.26
2019-04-21T23:04:35.901Z,98409.73
2019-04-21T23:07:02.829Z,98410.47
2019-04-21T23:09:30.872Z,98408.55
2019-04-21T23:12:02.793Z,98411.73
2019-04-21T23:14:45.616Z,98412.26
2019-04-21T23:17:23.930Z,98412.35
2019-04-21T23:19:53.884Z,98408.14
2019-04-21T23:22:27.969Z,98408.98
2019-04-21T23:24:57.554Z,98399.86
2019-04-21T23:27:23.986Z,98408.82
2019-04-21T23:30:11.663Z,98403.96
2019-04-21T23:32:23.567Z,98410.16
2019-04-21T23:34:45.942Z,98413.67
2019-04-21T23:37:20.264Z,98407.98
2019-04-21T23:39:47.729Z,98407.80
2019-04-21T23:42:23.695Z,98412.91
2019-04-21T23:44:52.946Z,98406.05
2019-04-21T23:47:37.352Z,98408.81
2019-04-21T23:50:00.461Z,98406.05
2019-04-21T23:52:23.827Z,98406.00
2019-04-21T23:54:53.606Z,98407.31
2019-04-21T23:57:31.782Z,98408.16
2019-04-21T23:59:57.100Z,98401.27
